sensor_id;sensor_type;location;lat;lon;timestamp;P1;durP1;ratioP1;P2;durP2;ratioP2
49812;SDS011;35706;52.100;5.056;2023-08-01T00:00:44;1.55;;;0.40;;
49812;SDS011;35706;52.100;5.056;2023-08-01T00:01:45;5.13;;;0.50;;
49812;SDS011;35706;52.100;5.056;2023-08-01T00:02:45;3.75;;;0.50;;
49812;SDS011;35706;52.100;5.056;2023-08-01T00:03:45;2.60;;;0.50;;
49812;SDS011;35706;52.100;5.056;2023-08-01T00:04:46;4.32;;;1.00;;
49812;SDS011;35706;52.100;5.056;2023-08-01T00:05:46;4.72;;;0.50;;
49812;SDS011;35706;52.100;5.056;2023-08-01T00:06:47;4.85;;;0.60;;
49812;SDS011;35706;52.100;5.056;2023-08-01T00:07:47;4.75;;;0.60;;
49812;SDS011;35706;52.100;5.056;2023-08-01T00:08:48;4.00;;;0.50;;
49812;SDS011;35706;52.100;5.056;2023-08-01T00:09:48;3.60;;;0.55;;
49812;SDS011;35706;52.100;5.056;2023-08-01T00:10:48;5.68;;;0.60;;
49812;SDS011;35706;52.100;5.056;2023-08-01T00:11:48;2.75;;;0.52;;
49812;SDS011;35706;52.100;5.056;2023-08-01T00:12:49;4.43;;;0.60;;
49812;SDS011;35706;52.100;5.056;2023-08-01T00:13:49;5.85;;;0.60;;
49812;SDS011;35706;52.100;5.056;2023-08-01T00:14:49;1.80;;;0.50;;
49812;SDS011;35706;52.100;5.056;2023-08-01T00:15:50;8.68;;;0.60;;
49812;SDS011;35706;52.100;5.056;2023-08-01T00:16:51;5.80;;;0.70;;
49812;SDS011;35706;52.100;5.056;2023-08-01T00:17:51;3.13;;;0.60;;
49812;SDS011;35706;52.100;5.056;2023-08-01T00:18:51;2.83;;;0.60;;
49812;SDS011;35706;52.100;5.056;2023-08-01T00:19:52;3.85;;;0.60;;
49812;SDS011;35706;52.100;5.056;2023-08-01T00:20:52;6.90;;;0.77;;
49812;SDS011;35706;52.100;5.056;2023-08-01T00:21:53;4.60;;;0.60;;
49812;SDS011;35706;52.100;5.056;2023-08-01T00:22:54;4.47;;;0.60;;
49812;SDS011;35706;52.100;5.056;2023-08-01T00:23:54;1.77;;;0.70;;
49812;SDS011;35706;52.100;5.056;2023-08-01T00:24:54;4.10;;;0.50;;
49812;SDS011;35706;52.100;5.056;2023-08-01T00:25:55;3.75;;;0.60;;
49812;SDS011;35706;52.100;5.056;2023-08-01T00:26:55;4.75;;;0.60;;
49812;SDS011;35706;52.100;5.056;2023-08-01T00:27:56;4.05;;;0.70;;
49812;SDS011;35706;52.100;5.056;2023-08-01T00:28:56;3.17;;;0.70;;
49812;SDS011;35706;52.100;5.056;2023-08-01T00:29:56;7.80;;;0.77;;
49812;SDS011;35706;52.100;5.056;2023-08-01T00:31:03;3.15;;;0.63;;
49812;SDS011;35706;52.100;5.056;2023-08-01T00:32:04;2.70;;;0.63;;
49812;SDS011;35706;52.100;5.056;2023-08-01T00:33:05;3.65;;;0.68;;
49812;SDS011;35706;52.100;5.056;2023-08-01T00:34:05;3.85;;;0.70;;
49812;SDS011;35706;52.100;5.056;2023-08-01T00:35:06;3.30;;;0.52;;
49812;SDS011;35706;52.100;5.056;2023-08-01T00:36:06;3.28;;;0.77;;
49812;SDS011;35706;52.100;5.056;2023-08-01T00:37:11;4.00;;;0.70;;
49812;SDS011;35706;52.100;5.056;2023-08-01T00:38:11;5.45;;;0.70;;
49812;SDS011;35706;52.100;5.056;2023-08-01T00:39:11;3.63;;;0.60;;
49812;SDS011;35706;52.100;5.056;2023-08-01T00:40:12;3.42;;;0.77;;
49812;SDS011;35706;52.100;5.056;2023-08-01T00:41:12;6.55;;;0.60;;
49812;SDS011;35706;52.100;5.056;2023-08-01T00:42:12;2.67;;;0.80;;
49812;SDS011;35706;52.100;5.056;2023-08-01T00:43:13;3.80;;;0.93;;
49812;SDS011;35706;52.100;5.056;2023-08-01T00:44:13;4.32;;;0.60;;
49812;SDS011;35706;52.100;5.056;2023-08-01T00:45:14;3.97;;;0.75;;
49812;SDS011;35706;52.100;5.056;2023-08-01T00:46:14;6.07;;;0.63;;
49812;SDS011;35706;52.100;5.056;2023-08-01T00:47:15;8.50;;;0.70;;
49812;SDS011;35706;52.100;5.056;2023-08-01T00:48:15;2.47;;;0.70;;
49812;SDS011;35706;52.100;5.056;2023-08-01T00:49:17;4.68;;;0.80;;
49812;SDS011;35706;52.100;5.056;2023-08-01T00:50:18;7.95;;;0.80;;
49812;SDS011;35706;52.100;5.056;2023-08-01T00:51:22;5.75;;;0.98;;
49812;SDS011;35706;52.100;5.056;2023-08-01T00:52:22;6.32;;;0.80;;
49812;SDS011;35706;52.100;5.056;2023-08-01T00:53:22;3.60;;;0.80;;
49812;SDS011;35706;52.100;5.056;2023-08-01T00:54:24;3.67;;;0.80;;
49812;SDS011;35706;52.100;5.056;2023-08-01T00:55:25;2.38;;;0.80;;
49812;SDS011;35706;52.100;5.056;2023-08-01T00:56:27;4.85;;;0.90;;
49812;SDS011;35706;52.100;5.056;2023-08-01T00:57:28;4.13;;;0.90;;
49812;SDS011;35706;52.100;5.056;2023-08-01T00:58:29;7.47;;;0.77;;
49812;SDS011;35706;52.100;5.056;2023-08-01T00:59:29;10.25;;;1.00;;
49812;SDS011;35706;52.100;5.056;2023-08-01T01:00:30;2.88;;;1.00;;
49812;SDS011;35706;52.100;5.056;2023-08-01T01:01:30;8.25;;;0.90;;
49812;SDS011;35706;52.100;5.056;2023-08-01T01:02:31;7.18;;;0.90;;
49812;SDS011;35706;52.100;5.056;2023-08-01T01:03:31;4.70;;;0.90;;
49812;SDS011;35706;52.100;5.056;2023-08-01T01:04:32;4.88;;;1.00;;
49812;SDS011;35706;52.100;5.056;2023-08-01T01:05:34;3.55;;;0.90;;
49812;SDS011;35706;52.100;5.056;2023-08-01T01:06:41;5.03;;;1.20;;
49812;SDS011;35706;52.100;5.056;2023-08-01T01:07:47;7.30;;;1.27;;
49812;SDS011;35706;52.100;5.056;2023-08-01T01:08:48;7.90;;;1.10;;
49812;SDS011;35706;52.100;5.056;2023-08-01T01:09:49;4.65;;;0.88;;
49812;SDS011;35706;52.100;5.056;2023-08-01T01:10:50;4.63;;;0.73;;
49812;SDS011;35706;52.100;5.056;2023-08-01T01:11:51;4.93;;;1.00;;
49812;SDS011;35706;52.100;5.056;2023-08-01T01:12:51;5.13;;;0.80;;
49812;SDS011;35706;52.100;5.056;2023-08-01T01:13:51;5.63;;;1.13;;
49812;SDS011;35706;52.100;5.056;2023-08-01T01:14:53;8.57;;;1.00;;
49812;SDS011;35706;52.100;5.056;2023-08-01T01:15:53;3.17;;;0.80;;
49812;SDS011;35706;52.100;5.056;2023-08-01T01:16:53;5.13;;;1.00;;
49812;SDS011;35706;52.100;5.056;2023-08-01T01:17:54;8.05;;;1.08;;
49812;SDS011;35706;52.100;5.056;2023-08-01T01:18:54;5.80;;;0.90;;
49812;SDS011;35706;52.100;5.056;2023-08-01T01:19:55;4.68;;;0.90;;
49812;SDS011;35706;52.100;5.056;2023-08-01T01:20:55;6.18;;;0.90;;
49812;SDS011;35706;52.100;5.056;2023-08-01T01:21:55;6.03;;;1.35;;
49812;SDS011;35706;52.100;5.056;2023-08-01T01:22:57;4.65;;;0.80;;
49812;SDS011;35706;52.100;5.056;2023-08-01T01:23:58;6.88;;;0.98;;
49812;SDS011;35706;52.100;5.056;2023-08-01T01:25:00;3.72;;;0.80;;
49812;SDS011;35706;52.100;5.056;2023-08-01T01:26:03;4.38;;;0.82;;
49812;SDS011;35706;52.100;5.056;2023-08-01T01:27:06;4.53;;;1.00;;
49812;SDS011;35706;52.100;5.056;2023-08-01T01:28:08;3.15;;;1.50;;
49812;SDS011;35706;52.100;5.056;2023-08-01T01:29:09;4.63;;;0.90;;
49812;SDS011;35706;52.100;5.056;2023-08-01T01:30:11;6.50;;;1.20;;
49812;SDS011;35706;52.100;5.056;2023-08-01T01:31:12;3.85;;;0.90;;
49812;SDS011;35706;52.100;5.056;2023-08-01T01:32:13;3.50;;;0.95;;
49812;SDS011;35706;52.100;5.056;2023-08-01T01:33:14;5.55;;;1.00;;
49812;SDS011;35706;52.100;5.056;2023-08-01T01:34:14;8.63;;;0.95;;
49812;SDS011;35706;52.100;5.056;2023-08-01T01:35:14;3.95;;;0.85;;
49812;SDS011;35706;52.100;5.056;2023-08-01T01:36:15;3.97;;;0.90;;
49812;SDS011;35706;52.100;5.056;2023-08-01T01:37:15;4.18;;;1.00;;
49812;SDS011;35706;52.100;5.056;2023-08-01T01:38:17;5.13;;;0.95;;
49812;SDS011;35706;52.100;5.056;2023-08-01T01:39:17;8.38;;;1.00;;
49812;SDS011;35706;52.100;5.056;2023-08-01T01:40:18;9.57;;;0.90;;
49812;SDS011;35706;52.100;5.056;2023-08-01T01:41:18;6.07;;;0.80;;
49812;SDS011;35706;52.100;5.056;2023-08-01T01:42:18;5.50;;;1.05;;
49812;SDS011;35706;52.100;5.056;2023-08-01T01:43:19;11.07;;;0.90;;
49812;SDS011;35706;52.100;5.056;2023-08-01T01:44:19;6.90;;;1.30;;
49812;SDS011;35706;52.100;5.056;2023-08-01T01:45:19;7.38;;;1.00;;
49812;SDS011;35706;52.100;5.056;2023-08-01T01:46:20;8.68;;;1.20;;
49812;SDS011;35706;52.100;5.056;2023-08-01T01:47:20;8.30;;;1.10;;
49812;SDS011;35706;52.100;5.056;2023-08-01T01:48:20;9.63;;;1.23;;
49812;SDS011;35706;52.100;5.056;2023-08-01T01:49:21;7.18;;;0.80;;
49812;SDS011;35706;52.100;5.056;2023-08-01T01:50:21;9.43;;;0.90;;
49812;SDS011;35706;52.100;5.056;2023-08-01T01:51:21;5.75;;;0.90;;
49812;SDS011;35706;52.100;5.056;2023-08-01T01:52:22;6.32;;;1.10;;
49812;SDS011;35706;52.100;5.056;2023-08-01T01:53:22;6.50;;;1.30;;
49812;SDS011;35706;52.100;5.056;2023-08-01T01:54:22;10.98;;;1.40;;
49812;SDS011;35706;52.100;5.056;2023-08-01T01:55:23;8.45;;;1.02;;
49812;SDS011;35706;52.100;5.056;2023-08-01T01:56:23;6.28;;;1.30;;
49812;SDS011;35706;52.100;5.056;2023-08-01T01:57:23;3.88;;;1.20;;
49812;SDS011;35706;52.100;5.056;2023-08-01T01:58:24;13.05;;;1.30;;
49812;SDS011;35706;52.100;5.056;2023-08-01T01:59:24;6.55;;;1.02;;
49812;SDS011;35706;52.100;5.056;2023-08-01T02:00:24;4.70;;;1.15;;
49812;SDS011;35706;52.100;5.056;2023-08-01T02:01:25;6.15;;;1.13;;
49812;SDS011;35706;52.100;5.056;2023-08-01T02:02:25;7.53;;;0.90;;
49812;SDS011;35706;52.100;5.056;2023-08-01T02:03:25;9.43;;;1.23;;
49812;SDS011;35706;52.100;5.056;2023-08-01T02:04:25;10.30;;;1.20;;
49812;SDS011;35706;52.100;5.056;2023-08-01T02:05:26;11.25;;;1.00;;
49812;SDS011;35706;52.100;5.056;2023-08-01T02:06:26;10.57;;;1.35;;
49812;SDS011;35706;52.100;5.056;2023-08-01T02:07:26;3.70;;;1.05;;
49812;SDS011;35706;52.100;5.056;2023-08-01T02:08:27;6.47;;;1.13;;
49812;SDS011;35706;52.100;5.056;2023-08-01T02:09:27;13.20;;;1.27;;
49812;SDS011;35706;52.100;5.056;2023-08-01T02:10:27;7.53;;;1.10;;
49812;SDS011;35706;52.100;5.056;2023-08-01T02:11:30;10.05;;;1.10;;
49812;SDS011;35706;52.100;5.056;2023-08-01T02:12:31;8.77;;;1.30;;
49812;SDS011;35706;52.100;5.056;2023-08-01T02:13:32;4.10;;;1.00;;
49812;SDS011;35706;52.100;5.056;2023-08-01T02:14:33;6.43;;;1.17;;
49812;SDS011;35706;52.100;5.056;2023-08-01T02:15:33;10.45;;;1.77;;
49812;SDS011;35706;52.100;5.056;2023-08-01T02:16:33;7.50;;;1.55;;
49812;SDS011;35706;52.100;5.056;2023-08-01T02:17:34;7.47;;;1.42;;
49812;SDS011;35706;52.100;5.056;2023-08-01T02:18:34;12.05;;;1.25;;
49812;SDS011;35706;52.100;5.056;2023-08-01T02:19:35;11.70;;;1.52;;
49812;SDS011;35706;52.100;5.056;2023-08-01T02:20:35;8.50;;;1.50;;
49812;SDS011;35706;52.100;5.056;2023-08-01T02:21:35;8.77;;;1.20;;
49812;SDS011;35706;52.100;5.056;2023-08-01T02:22:36;7.03;;;1.25;;
49812;SDS011;35706;52.100;5.056;2023-08-01T02:23:36;14.88;;;1.40;;
49812;SDS011;35706;52.100;5.056;2023-08-01T02:24:37;9.35;;;1.48;;
49812;SDS011;35706;52.100;5.056;2023-08-01T02:25:40;10.15;;;1.75;;
49812;SDS011;35706;52.100;5.056;2023-08-01T02:26:41;6.00;;;1.40;;
49812;SDS011;35706;52.100;5.056;2023-08-01T02:27:41;13.15;;;1.55;;
49812;SDS011;35706;52.100;5.056;2023-08-01T02:28:41;7.35;;;1.17;;
49812;SDS011;35706;52.100;5.056;2023-08-01T02:29:42;14.30;;;1.40;;
49812;SDS011;35706;52.100;5.056;2023-08-01T02:30:42;7.72;;;1.50;;
49812;SDS011;35706;52.100;5.056;2023-08-01T02:31:42;7.40;;;1.80;;
49812;SDS011;35706;52.100;5.056;2023-08-01T02:32:43;8.73;;;1.55;;
49812;SDS011;35706;52.100;5.056;2023-08-01T02:33:43;6.15;;;1.92;;
49812;SDS011;35706;52.100;5.056;2023-08-01T02:34:43;12.90;;;1.38;;
49812;SDS011;35706;52.100;5.056;2023-08-01T02:35:45;9.13;;;1.50;;
49812;SDS011;35706;52.100;5.056;2023-08-01T02:36:46;12.85;;;2.20;;
49812;SDS011;35706;52.100;5.056;2023-08-01T02:37:46;5.95;;;1.40;;
49812;SDS011;35706;52.100;5.056;2023-08-01T02:38:47;8.13;;;1.40;;
49812;SDS011;35706;52.100;5.056;2023-08-01T02:39:47;10.07;;;1.30;;
49812;SDS011;35706;52.100;5.056;2023-08-01T02:40:48;7.07;;;1.45;;
49812;SDS011;35706;52.100;5.056;2023-08-01T02:41:48;5.85;;;1.20;;
49812;SDS011;35706;52.100;5.056;2023-08-01T02:42:48;11.48;;;1.77;;
49812;SDS011;35706;52.100;5.056;2023-08-01T02:43:49;10.43;;;1.20;;
49812;SDS011;35706;52.100;5.056;2023-08-01T02:44:49;5.85;;;0.75;;
49812;SDS011;35706;52.100;5.056;2023-08-01T02:45:49;5.78;;;0.75;;
49812;SDS011;35706;52.100;5.056;2023-08-01T02:46:50;6.97;;;0.70;;
49812;SDS011;35706;52.100;5.056;2023-08-01T02:47:50;8.60;;;0.82;;
49812;SDS011;35706;52.100;5.056;2023-08-01T02:48:50;8.38;;;1.27;;
49812;SDS011;35706;52.100;5.056;2023-08-01T02:49:51;7.80;;;1.30;;
49812;SDS011;35706;52.100;5.056;2023-08-01T02:50:51;6.57;;;1.02;;
49812;SDS011;35706;52.100;5.056;2023-08-01T02:51:51;8.70;;;1.83;;
49812;SDS011;35706;52.100;5.056;2023-08-01T02:52:52;10.23;;;1.60;;
49812;SDS011;35706;52.100;5.056;2023-08-01T02:53:52;12.73;;;2.22;;
49812;SDS011;35706;52.100;5.056;2023-08-01T02:54:52;6.85;;;1.42;;
49812;SDS011;35706;52.100;5.056;2023-08-01T02:55:52;11.35;;;2.67;;
49812;SDS011;35706;52.100;5.056;2023-08-01T02:56:53;10.10;;;2.15;;
49812;SDS011;35706;52.100;5.056;2023-08-01T02:57:53;7.95;;;2.30;;
49812;SDS011;35706;52.100;5.056;2023-08-01T02:58:53;12.30;;;2.55;;
49812;SDS011;35706;52.100;5.056;2023-08-01T02:59:55;9.07;;;2.50;;
49812;SDS011;35706;52.100;5.056;2023-08-01T03:00:55;6.82;;;3.28;;
49812;SDS011;35706;52.100;5.056;2023-08-01T03:01:56;15.73;;;3.33;;
49812;SDS011;35706;52.100;5.056;2023-08-01T03:02:56;8.48;;;2.70;;
49812;SDS011;35706;52.100;5.056;2023-08-01T03:03:57;6.70;;;2.20;;
49812;SDS011;35706;52.100;5.056;2023-08-01T03:04:57;13.30;;;2.30;;
49812;SDS011;35706;52.100;5.056;2023-08-01T03:05:57;11.48;;;2.13;;
49812;SDS011;35706;52.100;5.056;2023-08-01T03:06:58;10.00;;;2.25;;
49812;SDS011;35706;52.100;5.056;2023-08-01T03:07:59;8.55;;;2.90;;
49812;SDS011;35706;52.100;5.056;2023-08-01T03:08:59;7.10;;;1.95;;
49812;SDS011;35706;52.100;5.056;2023-08-01T03:10:00;7.40;;;2.17;;
49812;SDS011;35706;52.100;5.056;2023-08-01T03:11:00;8.30;;;1.85;;
49812;SDS011;35706;52.100;5.056;2023-08-01T03:12:01;7.53;;;2.25;;
49812;SDS011;35706;52.100;5.056;2023-08-01T03:13:02;11.02;;;2.38;;
49812;SDS011;35706;52.100;5.056;2023-08-01T03:14:02;7.95;;;1.65;;
49812;SDS011;35706;52.100;5.056;2023-08-01T03:15:04;13.57;;;1.88;;
49812;SDS011;35706;52.100;5.056;2023-08-01T03:16:05;6.97;;;1.77;;
49812;SDS011;35706;52.100;5.056;2023-08-01T03:17:05;8.48;;;1.33;;
49812;SDS011;35706;52.100;5.056;2023-08-01T03:18:06;9.32;;;1.48;;
49812;SDS011;35706;52.100;5.056;2023-08-01T03:19:07;6.10;;;1.42;;
49812;SDS011;35706;52.100;5.056;2023-08-01T03:20:08;9.00;;;1.27;;
49812;SDS011;35706;52.100;5.056;2023-08-01T03:21:10;6.63;;;1.17;;
49812;SDS011;35706;52.100;5.056;2023-08-01T03:22:11;8.18;;;1.10;;
49812;SDS011;35706;52.100;5.056;2023-08-01T03:23:11;9.23;;;1.23;;
49812;SDS011;35706;52.100;5.056;2023-08-01T03:24:11;8.45;;;1.30;;
49812;SDS011;35706;52.100;5.056;2023-08-01T03:25:12;10.00;;;1.30;;
49812;SDS011;35706;52.100;5.056;2023-08-01T03:26:12;8.52;;;0.90;;
49812;SDS011;35706;52.100;5.056;2023-08-01T03:27:15;10.15;;;1.33;;
49812;SDS011;35706;52.100;5.056;2023-08-01T03:28:15;5.85;;;0.90;;
49812;SDS011;35706;52.100;5.056;2023-08-01T03:29:15;7.47;;;0.82;;
49812;SDS011;35706;52.100;5.056;2023-08-01T03:30:16;7.78;;;0.93;;
49812;SDS011;35706;52.100;5.056;2023-08-01T03:31:16;6.68;;;0.80;;
49812;SDS011;35706;52.100;5.056;2023-08-01T03:32:16;9.63;;;0.80;;
49812;SDS011;35706;52.100;5.056;2023-08-01T03:33:17;7.38;;;1.00;;
49812;SDS011;35706;52.100;5.056;2023-08-01T03:34:17;6.60;;;0.98;;
49812;SDS011;35706;52.100;5.056;2023-08-01T03:35:18;11.55;;;0.90;;
49812;SDS011;35706;52.100;5.056;2023-08-01T03:36:18;14.55;;;1.05;;
49812;SDS011;35706;52.100;5.056;2023-08-01T03:37:18;8.15;;;0.82;;
49812;SDS011;35706;52.100;5.056;2023-08-01T03:38:19;8.10;;;1.05;;
49812;SDS011;35706;52.100;5.056;2023-08-01T03:39:19;10.93;;;1.20;;
49812;SDS011;35706;52.100;5.056;2023-08-01T03:40:20;9.77;;;1.00;;
49812;SDS011;35706;52.100;5.056;2023-08-01T03:41:21;13.93;;;1.27;;
49812;SDS011;35706;52.100;5.056;2023-08-01T03:42:21;15.05;;;0.90;;
49812;SDS011;35706;52.100;5.056;2023-08-01T03:43:21;9.07;;;0.90;;
49812;SDS011;35706;52.100;5.056;2023-08-01T03:44:23;7.82;;;1.35;;
49812;SDS011;35706;52.100;5.056;2023-08-01T03:45:24;9.90;;;1.08;;
49812;SDS011;35706;52.100;5.056;2023-08-01T03:46:24;9.63;;;1.38;;
49812;SDS011;35706;52.100;5.056;2023-08-01T03:47:24;11.73;;;0.95;;
49812;SDS011;35706;52.100;5.056;2023-08-01T03:48:25;8.80;;;1.25;;
49812;SDS011;35706;52.100;5.056;2023-08-01T03:49:25;14.55;;;1.30;;
49812;SDS011;35706;52.100;5.056;2023-08-01T03:50:26;9.80;;;1.00;;
49812;SDS011;35706;52.100;5.056;2023-08-01T03:51:26;11.68;;;1.23;;
49812;SDS011;35706;52.100;5.056;2023-08-01T03:52:26;9.60;;;1.20;;
49812;SDS011;35706;52.100;5.056;2023-08-01T03:53:27;9.35;;;1.00;;
49812;SDS011;35706;52.100;5.056;2023-08-01T03:54:27;7.60;;;1.20;;
49812;SDS011;35706;52.100;5.056;2023-08-01T03:55:27;11.80;;;1.38;;
49812;SDS011;35706;52.100;5.056;2023-08-01T03:56:28;9.52;;;1.27;;
49812;SDS011;35706;52.100;5.056;2023-08-01T03:57:29;10.52;;;1.20;;
49812;SDS011;35706;52.100;5.056;2023-08-01T03:58:29;14.32;;;1.65;;
49812;SDS011;35706;52.100;5.056;2023-08-01T03:59:29;14.50;;;1.40;;
49812;SDS011;35706;52.100;5.056;2023-08-01T04:00:29;16.90;;;1.80;;
49812;SDS011;35706;52.100;5.056;2023-08-01T04:01:33;12.27;;;1.67;;
49812;SDS011;35706;52.100;5.056;2023-08-01T04:02:34;10.18;;;1.17;;
49812;SDS011;35706;52.100;5.056;2023-08-01T04:03:34;9.45;;;1.30;;
49812;SDS011;35706;52.100;5.056;2023-08-01T04:04:34;12.40;;;1.40;;
49812;SDS011;35706;52.100;5.056;2023-08-01T04:05:35;9.65;;;1.25;;
49812;SDS011;35706;52.100;5.056;2023-08-01T04:06:35;13.40;;;1.20;;
49812;SDS011;35706;52.100;5.056;2023-08-01T04:07:36;10.35;;;1.15;;
49812;SDS011;35706;52.100;5.056;2023-08-01T04:08:37;8.13;;;1.20;;
49812;SDS011;35706;52.100;5.056;2023-08-01T04:09:37;15.38;;;1.23;;
49812;SDS011;35706;52.100;5.056;2023-08-01T04:10:38;6.85;;;1.63;;
49812;SDS011;35706;52.100;5.056;2023-08-01T04:11:38;12.50;;;1.40;;
49812;SDS011;35706;52.100;5.056;2023-08-01T04:12:39;10.43;;;1.30;;
49812;SDS011;35706;52.100;5.056;2023-08-01T04:13:39;9.02;;;1.40;;
49812;SDS011;35706;52.100;5.056;2023-08-01T04:14:39;10.60;;;1.17;;
49812;SDS011;35706;52.100;5.056;2023-08-01T04:15:40;9.20;;;1.20;;
49812;SDS011;35706;52.100;5.056;2023-08-01T04:16:40;10.00;;;1.33;;
49812;SDS011;35706;52.100;5.056;2023-08-01T04:17:41;9.45;;;1.40;;
49812;SDS011;35706;52.100;5.056;2023-08-01T04:18:41;12.55;;;1.60;;
49812;SDS011;35706;52.100;5.056;2023-08-01T04:19:41;5.93;;;1.27;;
49812;SDS011;35706;52.100;5.056;2023-08-01T04:20:42;13.23;;;1.58;;
49812;SDS011;35706;52.100;5.056;2023-08-01T04:21:42;16.35;;;1.50;;
49812;SDS011;35706;52.100;5.056;2023-08-01T04:22:43;6.18;;;1.08;;
49812;SDS011;35706;52.100;5.056;2023-08-01T04:23:43;13.13;;;1.50;;
49812;SDS011;35706;52.100;5.056;2023-08-01T04:24:44;9.70;;;1.73;;
49812;SDS011;35706;52.100;5.056;2023-08-01T04:25:44;22.73;;;1.90;;
49812;SDS011;35706;52.100;5.056;2023-08-01T04:26:45;15.38;;;1.27;;
49812;SDS011;35706;52.100;5.056;2023-08-01T04:27:45;13.70;;;1.20;;
49812;SDS011;35706;52.100;5.056;2023-08-01T04:28:46;16.58;;;1.48;;
49812;SDS011;35706;52.100;5.056;2023-08-01T04:29:47;10.52;;;1.88;;
49812;SDS011;35706;52.100;5.056;2023-08-01T04:30:49;11.25;;;1.23;;
49812;SDS011;35706;52.100;5.056;2023-08-01T04:31:50;12.75;;;1.20;;
49812;SDS011;35706;52.100;5.056;2023-08-01T04:32:50;16.30;;;1.30;;
49812;SDS011;35706;52.100;5.056;2023-08-01T04:33:50;13.40;;;1.45;;
49812;SDS011;35706;52.100;5.056;2023-08-01T04:34:51;12.50;;;1.45;;
49812;SDS011;35706;52.100;5.056;2023-08-01T04:35:51;9.88;;;1.00;;
49812;SDS011;35706;52.100;5.056;2023-08-01T04:36:51;15.85;;;1.65;;
49812;SDS011;35706;52.100;5.056;2023-08-01T04:37:52;15.32;;;1.60;;
49812;SDS011;35706;52.100;5.056;2023-08-01T04:38:52;13.27;;;1.75;;
49812;SDS011;35706;52.100;5.056;2023-08-01T04:39:52;14.95;;;2.63;;
49812;SDS011;35706;52.100;5.056;2023-08-01T04:40:52;15.55;;;1.67;;
49812;SDS011;35706;52.100;5.056;2023-08-01T04:41:53;10.93;;;1.80;;
49812;SDS011;35706;52.100;5.056;2023-08-01T04:42:53;11.85;;;1.63;;
49812;SDS011;35706;52.100;5.056;2023-08-01T04:43:53;13.90;;;1.48;;
49812;SDS011;35706;52.100;5.056;2023-08-01T04:44:54;11.77;;;1.70;;
49812;SDS011;35706;52.100;5.056;2023-08-01T04:45:54;17.27;;;2.03;;
49812;SDS011;35706;52.100;5.056;2023-08-01T04:46:55;12.40;;;1.42;;
49812;SDS011;35706;52.100;5.056;2023-08-01T04:47:55;9.73;;;1.52;;
49812;SDS011;35706;52.100;5.056;2023-08-01T04:48:55;11.25;;;1.70;;
49812;SDS011;35706;52.100;5.056;2023-08-01T04:49:55;7.25;;;1.33;;
49812;SDS011;35706;52.100;5.056;2023-08-01T04:50:56;25.77;;;2.20;;
49812;SDS011;35706;52.100;5.056;2023-08-01T04:51:56;10.05;;;1.33;;
49812;SDS011;35706;52.100;5.056;2023-08-01T04:52:56;13.50;;;1.30;;
49812;SDS011;35706;52.100;5.056;2023-08-01T04:53:57;10.25;;;1.48;;
49812;SDS011;35706;52.100;5.056;2023-08-01T04:54:57;15.20;;;1.92;;
49812;SDS011;35706;52.100;5.056;2023-08-01T04:55:58;16.40;;;1.40;;
49812;SDS011;35706;52.100;5.056;2023-08-01T04:56:58;12.80;;;1.48;;
49812;SDS011;35706;52.100;5.056;2023-08-01T04:57:59;12.27;;;1.45;;
49812;SDS011;35706;52.100;5.056;2023-08-01T04:58:59;13.27;;;1.70;;
49812;SDS011;35706;52.100;5.056;2023-08-01T05:00:02;8.00;;;1.17;;
49812;SDS011;35706;52.100;5.056;2023-08-01T05:01:03;9.75;;;1.00;;
49812;SDS011;35706;52.100;5.056;2023-08-01T05:02:04;14.00;;;1.15;;
49812;SDS011;35706;52.100;5.056;2023-08-01T05:03:04;8.52;;;1.08;;
49812;SDS011;35706;52.100;5.056;2023-08-01T05:04:04;11.18;;;1.00;;
49812;SDS011;35706;52.100;5.056;2023-08-01T05:05:05;15.02;;;1.40;;
49812;SDS011;35706;52.100;5.056;2023-08-01T05:06:06;12.85;;;1.08;;
49812;SDS011;35706;52.100;5.056;2023-08-01T05:07:06;10.68;;;0.80;;
49812;SDS011;35706;52.100;5.056;2023-08-01T05:08:06;10.38;;;1.00;;
49812;SDS011;35706;52.100;5.056;2023-08-01T05:09:06;10.10;;;1.17;;
49812;SDS011;35706;52.100;5.056;2023-08-01T05:10:07;16.80;;;1.45;;
49812;SDS011;35706;52.100;5.056;2023-08-01T05:11:08;13.50;;;1.67;;
49812;SDS011;35706;52.100;5.056;2023-08-01T05:12:08;12.20;;;1.33;;
49812;SDS011;35706;52.100;5.056;2023-08-01T05:13:09;13.43;;;1.10;;
49812;SDS011;35706;52.100;5.056;2023-08-01T05:14:09;14.57;;;1.13;;
49812;SDS011;35706;52.100;5.056;2023-08-01T05:15:09;13.00;;;0.90;;
49812;SDS011;35706;52.100;5.056;2023-08-01T05:16:10;12.95;;;1.20;;
49812;SDS011;35706;52.100;5.056;2023-08-01T05:17:10;10.82;;;1.02;;
49812;SDS011;35706;52.100;5.056;2023-08-01T05:18:10;13.68;;;1.48;;
49812;SDS011;35706;52.100;5.056;2023-08-01T05:19:11;13.90;;;1.17;;
49812;SDS011;35706;52.100;5.056;2023-08-01T05:20:11;19.33;;;1.23;;
49812;SDS011;35706;52.100;5.056;2023-08-01T05:21:12;8.73;;;0.80;;
49812;SDS011;35706;52.100;5.056;2023-08-01T05:22:12;15.38;;;0.90;;
49812;SDS011;35706;52.100;5.056;2023-08-01T05:23:13;10.13;;;1.10;;
49812;SDS011;35706;52.100;5.056;2023-08-01T05:24:13;9.93;;;1.10;;
49812;SDS011;35706;52.100;5.056;2023-08-01T05:25:14;6.47;;;0.90;;
49812;SDS011;35706;52.100;5.056;2023-08-01T05:26:14;13.70;;;1.10;;
49812;SDS011;35706;52.100;5.056;2023-08-01T05:27:15;15.05;;;0.90;;
49812;SDS011;35706;52.100;5.056;2023-08-01T05:28:15;10.15;;;0.85;;
49812;SDS011;35706;52.100;5.056;2023-08-01T05:29:15;10.20;;;0.95;;
49812;SDS011;35706;52.100;5.056;2023-08-01T05:30:16;10.65;;;0.88;;
49812;SDS011;35706;52.100;5.056;2023-08-01T05:31:16;10.25;;;1.20;;
49812;SDS011;35706;52.100;5.056;2023-08-01T05:32:16;15.10;;;1.05;;
49812;SDS011;35706;52.100;5.056;2023-08-01T05:33:16;12.32;;;0.80;;
49812;SDS011;35706;52.100;5.056;2023-08-01T05:34:17;7.90;;;0.90;;
49812;SDS011;35706;52.100;5.056;2023-08-01T05:35:17;7.50;;;0.80;;
49812;SDS011;35706;52.100;5.056;2023-08-01T05:36:18;9.52;;;0.90;;
49812;SDS011;35706;52.100;5.056;2023-08-01T05:37:21;13.13;;;1.10;;
49812;SDS011;35706;52.100;5.056;2023-08-01T05:38:21;9.98;;;0.70;;
49812;SDS011;35706;52.100;5.056;2023-08-01T05:39:22;5.07;;;0.70;;
49812;SDS011;35706;52.100;5.056;2023-08-01T05:40:22;11.00;;;0.90;;
49812;SDS011;35706;52.100;5.056;2023-08-01T05:41:22;8.68;;;0.70;;
49812;SDS011;35706;52.100;5.056;2023-08-01T05:42:26;9.68;;;0.68;;
49812;SDS011;35706;52.100;5.056;2023-08-01T05:43:26;9.23;;;0.75;;
49812;SDS011;35706;52.100;5.056;2023-08-01T05:44:27;7.53;;;0.80;;
49812;SDS011;35706;52.100;5.056;2023-08-01T05:45:27;8.50;;;0.70;;
49812;SDS011;35706;52.100;5.056;2023-08-01T05:46:27;7.70;;;0.70;;
49812;SDS011;35706;52.100;5.056;2023-08-01T05:47:27;8.68;;;0.70;;
49812;SDS011;35706;52.100;5.056;2023-08-01T05:48:28;10.07;;;0.95;;
49812;SDS011;35706;52.100;5.056;2023-08-01T05:49:28;7.28;;;0.70;;
49812;SDS011;35706;52.100;5.056;2023-08-01T05:50:32;6.78;;;0.60;;
49812;SDS011;35706;52.100;5.056;2023-08-01T05:51:32;7.43;;;0.60;;
49812;SDS011;35706;52.100;5.056;2023-08-01T05:52:33;4.18;;;0.60;;
49812;SDS011;35706;52.100;5.056;2023-08-01T05:53:34;7.53;;;0.60;;
49812;SDS011;35706;52.100;5.056;2023-08-01T05:54:34;7.20;;;0.70;;
49812;SDS011;35706;52.100;5.056;2023-08-01T05:55:34;10.45;;;1.05;;
49812;SDS011;35706;52.100;5.056;2023-08-01T05:56:35;7.97;;;0.85;;
49812;SDS011;35706;52.100;5.056;2023-08-01T05:57:35;6.55;;;0.70;;
49812;SDS011;35706;52.100;5.056;2023-08-01T05:58:36;9.35;;;0.65;;
49812;SDS011;35706;52.100;5.056;2023-08-01T05:59:36;6.95;;;0.75;;
49812;SDS011;35706;52.100;5.056;2023-08-01T06:00:37;4.78;;;0.70;;
49812;SDS011;35706;52.100;5.056;2023-08-01T06:01:37;6.03;;;0.60;;
49812;SDS011;35706;52.100;5.056;2023-08-01T06:02:38;6.65;;;0.60;;
49812;SDS011;35706;52.100;5.056;2023-08-01T06:03:38;5.38;;;0.57;;